UMMS/MSQ METAR and TAF weather

Enter ICAO airport designator
Station Type Date Time Source
UMMS METAR 2020/09/22 20:30 UTC NOAA

UMMS 222030Z VRB01MPS CAVOK 11/08 Q1016 R31R/CLRD// R31L/////// NOSIG


Station Type Date Time Source
UMMS Decoded METAR 2020/09/22 20:30 UTC NOAA

Minsk, Belarus (UMMS) 53-56N 027-38E 231M
Sep 22, 2020 - 04:30 PM EDT / 2020.09.22 2030 UTC
Wind: Variable at 2 MPH (2 KT):0
Visibility: greater than 7 mile(s):0
Temperature: 51 F (11 C)
Dew Point: 46 F (8 C)
Relative Humidity: 81%
Pressure (altimeter): 30.00 in. Hg (1016 hPa)
ob: UMMS 222030Z VRB01MPS CAVOK 11/08 Q1016 R31R/CLRD// R31L/////// NOSIG
cycle: 20

Station Type Date Time Source
UMMS TAF 2020/09/22 18:21 UTC NOAA

TAF TAF UMMS 221704Z 2218/2318 18005MPS 8000 FEW030
TEMPO 2218/2306 0300 FG BKN002
BECMG 2306/2307 18005G10MPS CAVOK

Example: see airport list